createdAt,value
2023-02-25T00:01:13.378Z,3.80
2023-02-25T00:04:37.374Z,7.17
2023-02-25T00:08:01.124Z,5.37
2023-02-25T00:11:26.538Z,6.50
2023-02-25T00:14:51.020Z,4.13
2023-02-25T00:18:16.332Z,4.10
2023-02-25T00:21:39.950Z,4.70
2023-02-25T00:25:04.338Z,3.40
2023-02-25T00:28:28.242Z,5.30
2023-02-25T00:31:52.143Z,4.73
2023-02-25T00:35:17.659Z,5.97
2023-02-25T00:38:42.433Z,5.60
2023-02-25T00:42:07.011Z,10.20
2023-02-25T00:45:32.266Z,4.70
2023-02-25T00:48:58.569Z,11.53
2023-02-25T00:52:24.703Z,8.90
2023-02-25T00:55:49.150Z,7.13
2023-02-25T00:59:14.253Z,4.40
2023-02-25T01:02:38.435Z,4.90
2023-02-25T01:06:03.160Z,4.20
2023-02-25T01:09:28.375Z,4.30
2023-02-25T01:12:54.136Z,4.60
2023-02-25T01:16:20.488Z,5.03
2023-02-25T01:19:45.105Z,4.67
2023-02-25T01:23:12.222Z,3.53
2023-02-25T01:26:39.789Z,2.90
2023-02-25T01:30:05.341Z,3.70
2023-02-25T01:33:29.062Z,3.10
2023-02-25T01:36:53.914Z,4.30
2023-02-25T01:40:18.917Z,4.20
2023-02-25T01:43:44.056Z,5.40
2023-02-25T01:47:07.917Z,3.93
2023-02-25T01:50:40.787Z,6.43
2023-02-25T01:54:08.497Z,3.30
2023-02-25T01:57:33.739Z,3.77
2023-02-25T02:01:01.356Z,4.43
2023-02-25T02:04:27.937Z,4.00
2023-02-25T02:07:54.368Z,3.67
2023-02-25T02:11:18.617Z,4.40
2023-02-25T02:14:43.775Z,4.20
2023-02-25T02:18:11.168Z,4.37
2023-02-25T02:21:50.551Z,3.90
2023-02-25T02:25:43.534Z,3.67
2023-02-25T02:29:45.180Z,5.50
2023-02-25T02:33:19.814Z,5.40
2023-02-25T02:37:02.606Z,5.40
2023-02-25T02:40:44.528Z,3.60
2023-02-25T02:44:14.668Z,5.30
2023-02-25T02:47:42.010Z,4.20
2023-02-25T02:51:15.285Z,5.50
2023-02-25T02:54:40.918Z,4.03
2023-02-25T02:58:11.555Z,4.50
2023-02-25T03:01:41.416Z,4.10
2023-02-25T03:05:09.677Z,4.77
2023-02-25T03:08:44.596Z,7.87
2023-02-25T03:12:10.868Z,4.83
2023-02-25T03:15:43.272Z,5.03
2023-02-25T03:19:12.081Z,3.90
2023-02-25T03:22:40.085Z,4.63
2023-02-25T03:26:13.600Z,4.27
2023-02-25T03:29:37.257Z,4.50
2023-02-25T03:33:07.753Z,4.50
2023-02-25T03:36:34.532Z,4.30
2023-02-25T03:40:06.886Z,4.53
2023-02-25T03:43:37.704Z,4.90
2023-02-25T03:47:03.532Z,4.93
2023-02-25T03:50:34.510Z,4.70
2023-02-25T03:54:02.898Z,3.47
2023-02-25T03:57:38.540Z,4.40
2023-02-25T04:01:08.152Z,4.53
2023-02-25T04:04:32.327Z,6.10
2023-02-25T04:07:56.599Z,3.93
2023-02-25T04:11:21.724Z,4.10
2023-02-25T04:14:46.266Z,4.80
2023-02-25T04:18:13.204Z,4.37
2023-02-25T04:21:39.419Z,5.07
2023-02-25T04:25:05.674Z,3.87
2023-02-25T04:28:29.292Z,4.57
2023-02-25T04:31:53.646Z,4.90
2023-02-25T04:35:18.696Z,3.77
2023-02-25T04:38:42.270Z,4.40
2023-02-25T04:42:06.503Z,4.57
2023-02-25T04:45:32.352Z,3.70
2023-02-25T04:48:55.927Z,3.73
2023-02-25T04:52:21.697Z,3.77
2023-02-25T04:55:45.276Z,3.83
2023-02-25T04:59:11.223Z,3.43
2023-02-25T05:02:35.418Z,4.20
2023-02-25T05:06:01.137Z,4.70
2023-02-25T05:09:26.698Z,4.20
2023-02-25T05:12:50.364Z,3.87
2023-02-25T05:16:17.409Z,5.40
2023-02-25T05:19:41.356Z,4.20
2023-02-25T05:23:05.340Z,4.50
2023-02-25T05:26:30.697Z,3.80
2023-02-25T05:29:54.700Z,4.60
2023-02-25T05:33:19.424Z,3.93
2023-02-25T05:36:43.267Z,3.70
2023-02-25T05:40:09.201Z,4.10
2023-02-25T05:43:38.236Z,4.87
2023-02-25T05:47:02.396Z,4.93
2023-02-25T05:50:26.419Z,4.63
2023-02-25T05:53:50.628Z,3.90
2023-02-25T05:57:14.356Z,5.07
2023-02-25T06:00:40.130Z,4.03
2023-02-25T06:04:04.436Z,4.97
2023-02-25T06:07:30.612Z,3.50
2023-02-25T06:10:54.380Z,3.47
2023-02-25T06:14:19.614Z,3.50
2023-02-25T06:17:44.751Z,3.47
2023-02-25T06:21:10.980Z,3.40
2023-02-25T06:24:35.816Z,3.60
2023-02-25T06:28:02.242Z,3.53
2023-02-25T06:31:26.534Z,3.37
2023-02-25T06:34:52.107Z,3.73
2023-02-25T06:38:16.411Z,3.50
2023-02-25T06:41:40.568Z,3.50
2023-02-25T06:45:04.813Z,3.50
2023-02-25T06:48:28.372Z,3.00
2023-02-25T06:51:53.864Z,3.47
2023-02-25T06:55:17.451Z,3.37
2023-02-25T06:58:42.197Z,3.10
2023-02-25T07:02:07.664Z,2.90
2023-02-25T07:05:31.906Z,3.67
2023-02-25T07:08:58.050Z,3.20
2023-02-25T07:12:21.950Z,2.50
2023-02-25T07:15:46.572Z,2.40
2023-02-25T07:19:10.435Z,2.87
2023-02-25T07:22:34.565Z,2.60
2023-02-25T07:26:03.002Z,2.63
2023-02-25T07:29:28.690Z,2.00
2023-02-25T07:32:52.432Z,2.20
2023-02-25T07:36:19.281Z,2.53
2023-02-25T07:39:43.500Z,2.50
2023-02-25T07:43:08.902Z,2.90
2023-02-25T07:46:36.916Z,2.27
2023-02-25T07:50:00.477Z,2.17
2023-02-25T07:53:24.514Z,2.73
2023-02-25T07:56:51.312Z,2.73
2023-02-25T08:00:20.068Z,2.03
2023-02-25T08:03:43.633Z,2.80
2023-02-25T08:07:07.567Z,3.33
2023-02-25T08:10:31.805Z,3.80
2023-02-25T08:13:55.819Z,3.80
2023-02-25T08:17:20.918Z,2.60
2023-02-25T08:20:48.222Z,3.43
2023-02-25T08:24:12.574Z,3.80
2023-02-25T08:27:37.422Z,2.73
2023-02-25T08:31:01.947Z,3.33
2023-02-25T08:34:27.952Z,3.40
2023-02-25T08:37:52.032Z,3.50
2023-02-25T08:41:20.505Z,3.90
2023-02-25T08:44:44.573Z,3.53
2023-02-25T08:48:08.559Z,4.90
2023-02-25T08:51:43.720Z,4.00
2023-02-25T08:55:08.033Z,3.17
2023-02-25T08:58:32.589Z,4.23
2023-02-25T09:01:56.550Z,3.80
2023-02-25T09:05:20.845Z,2.87
2023-02-25T09:08:46.028Z,2.90
2023-02-25T09:12:13.434Z,3.33
2023-02-25T09:15:37.619Z,3.20
2023-02-25T09:19:01.705Z,2.83
2023-02-25T09:22:25.600Z,2.90
2023-02-25T09:25:51.260Z,3.07
2023-02-25T09:29:17.706Z,2.80
2023-02-25T09:32:41.812Z,2.30
2023-02-25T09:36:08.389Z,3.83
2023-02-25T09:39:32.612Z,2.70
2023-02-25T09:43:09.970Z,2.30
2023-02-25T09:46:35.704Z,3.20
2023-02-25T09:50:03.702Z,2.70
2023-02-25T09:53:32.954Z,2.40
2023-02-25T09:56:59.803Z,2.50
2023-02-25T10:00:25.347Z,2.50
2023-02-25T10:03:56.075Z,2.77
2023-02-25T10:07:23.701Z,3.60
2023-02-25T10:10:54.731Z,3.40
2023-02-25T10:14:31.202Z,2.30
2023-02-25T10:18:08.195Z,3.30
2023-02-25T10:21:54.411Z,2.90
2023-02-25T10:25:22.999Z,2.90
2023-02-25T10:28:50.268Z,3.10
2023-02-25T10:32:19.293Z,2.37
2023-02-25T10:35:44.337Z,2.20
2023-02-25T10:39:10.801Z,2.53
2023-02-25T10:42:35.400Z,2.10
2023-02-25T10:46:04.069Z,2.23
2023-02-25T10:49:30.109Z,2.53
2023-02-25T10:52:58.537Z,2.60
2023-02-25T10:56:22.792Z,2.20
2023-02-25T10:59:47.016Z,2.37
2023-02-25T11:03:24.280Z,1.73
2023-02-25T11:06:48.607Z,2.20
2023-02-25T11:10:19.614Z,2.20
2023-02-25T11:13:43.585Z,2.47
2023-02-25T11:17:13.247Z,2.57
2023-02-25T11:20:37.488Z,2.30
2023-02-25T11:24:03.507Z,2.07
2023-02-25T11:27:36.070Z,2.03
2023-02-25T11:31:16.977Z,2.27
2023-02-25T11:34:48.781Z,2.17
2023-02-25T11:38:25.323Z,2.50
2023-02-25T11:41:51.124Z,2.70
2023-02-25T11:45:18.598Z,2.23
2023-02-25T11:48:49.260Z,2.33
2023-02-25T11:52:20.053Z,2.50
2023-02-25T11:55:55.285Z,1.93
2023-02-25T11:59:47.143Z,2.07
2023-02-25T12:03:31.639Z,2.00
2023-02-25T12:07:30.452Z,2.10
2023-02-25T12:11:27.350Z,2.30
2023-02-25T12:15:25.604Z,2.03
2023-02-25T12:19:21.193Z,2.90
2023-02-25T12:23:09.064Z,2.17
2023-02-25T12:26:46.133Z,1.70
2023-02-25T12:30:57.976Z,1.80
2023-02-25T12:34:47.803Z,1.50
2023-02-25T12:39:06.030Z,1.77
2023-02-25T12:42:46.418Z,1.90
2023-02-25T12:46:20.755Z,1.90
2023-02-25T12:50:15.617Z,1.90
2023-02-25T12:53:49.667Z,2.20
2023-02-25T12:57:25.146Z,2.03
2023-02-25T13:01:23.893Z,2.03
2023-02-25T13:05:18.628Z,2.13
2023-02-25T13:09:01.933Z,1.73
2023-02-25T13:12:44.642Z,2.20
2023-02-25T13:16:22.057Z,2.10
2023-02-25T13:20:04.416Z,2.13
2023-02-25T13:23:49.602Z,1.70
2023-02-25T13:27:31.857Z,2.07
2023-02-25T13:31:02.866Z,1.90
2023-02-25T13:34:35.874Z,2.20
2023-02-25T13:38:13.662Z,1.63
2023-02-25T13:41:48.851Z,2.00
2023-02-25T13:45:57.201Z,2.00
2023-02-25T13:49:32.160Z,2.40
2023-02-25T13:53:10.453Z,2.60
2023-02-25T13:56:46.256Z,2.13
2023-02-25T14:00:42.692Z,2.20
2023-02-25T14:04:39.448Z,2.23
2023-02-25T14:08:14.238Z,4.07
2023-02-25T14:12:00.491Z,3.03
2023-02-25T14:15:47.987Z,2.17
2023-02-25T14:19:28.220Z,2.40
2023-02-25T14:22:55.871Z,3.07
2023-02-25T14:26:29.852Z,2.50
2023-02-25T14:30:24.515Z,2.40
2023-02-25T14:34:05.042Z,2.60
2023-02-25T14:37:40.096Z,2.10
2023-02-25T14:41:15.435Z,2.00
2023-02-25T14:44:44.819Z,2.27
2023-02-25T14:48:16.635Z,2.37
2023-02-25T14:52:16.115Z,2.00
2023-02-25T14:56:03.576Z,2.33
2023-02-25T14:59:58.612Z,3.00
2023-02-25T15:03:46.702Z,2.23
2023-02-25T15:07:25.439Z,2.37
2023-02-25T15:11:06.977Z,2.20
2023-02-25T15:14:59.173Z,2.10
2023-02-25T15:19:10.774Z,2.13
2023-02-25T15:22:37.326Z,2.53
2023-02-25T15:26:21.019Z,2.00
2023-02-25T15:29:58.646Z,2.30
2023-02-25T15:33:28.046Z,2.50
2023-02-25T15:37:23.262Z,2.93
2023-02-25T15:40:50.873Z,2.37
2023-02-25T15:44:39.384Z,2.80
2023-02-25T15:48:25.102Z,2.70
2023-02-25T15:51:52.338Z,3.50
2023-02-25T15:55:21.363Z,2.47
2023-02-25T15:58:52.946Z,2.63
2023-02-25T16:02:53.933Z,2.20
2023-02-25T16:06:21.130Z,2.13
2023-02-25T16:09:50.556Z,2.67
2023-02-25T16:13:17.158Z,2.90
2023-02-25T16:16:46.356Z,2.30
2023-02-25T16:20:19.655Z,3.50
2023-02-25T16:23:44.438Z,2.50
2023-02-25T16:27:15.379Z,2.43
2023-02-25T16:30:44.514Z,2.30
2023-02-25T16:34:17.513Z,2.47
2023-02-25T16:37:49.904Z,2.20
2023-02-25T16:41:14.986Z,2.40
2023-02-25T16:44:40.362Z,3.00
2023-02-25T16:48:08.441Z,2.70
2023-02-25T16:51:36.876Z,2.47
2023-02-25T16:55:03.090Z,2.43
2023-02-25T16:58:30.372Z,2.20
2023-02-25T17:01:59.353Z,2.70
2023-02-25T17:05:28.931Z,2.93
2023-02-25T17:08:53.934Z,2.67
2023-02-25T17:12:21.157Z,3.03
2023-02-25T17:15:45.933Z,2.50
2023-02-25T17:19:12.243Z,3.10
2023-02-25T17:22:39.038Z,2.77
2023-02-25T17:26:05.515Z,2.40
2023-02-25T17:29:34.811Z,2.93
2023-02-25T17:32:59.207Z,3.00
2023-02-25T17:36:25.590Z,3.63
2023-02-25T17:39:49.737Z,3.53
2023-02-25T17:43:20.792Z,4.27
2023-02-25T17:46:44.592Z,4.10
2023-02-25T17:50:22.591Z,2.83
2023-02-25T17:53:50.407Z,2.63
2023-02-25T17:57:18.528Z,2.93
2023-02-25T18:00:55.928Z,3.23
2023-02-25T18:04:25.512Z,3.87
2023-02-25T18:08:03.443Z,3.80
2023-02-25T18:11:29.008Z,4.60
2023-02-25T18:14:56.496Z,4.60
2023-02-25T18:18:23.640Z,4.23
2023-02-25T18:21:47.516Z,3.97
2023-02-25T18:25:30.073Z,2.90
2023-02-25T18:28:57.299Z,3.33
2023-02-25T18:32:20.923Z,3.97
2023-02-25T18:35:48.010Z,4.23
2023-02-25T18:39:14.305Z,3.63
2023-02-25T18:42:37.879Z,4.00
2023-02-25T18:46:01.509Z,3.97
2023-02-25T18:49:25.069Z,2.77
2023-02-25T18:52:50.617Z,3.50
2023-02-25T18:56:17.945Z,3.90
2023-02-25T18:59:41.499Z,4.70
2023-02-25T19:03:06.940Z,3.80
2023-02-25T19:06:32.013Z,5.33
2023-02-25T19:09:57.147Z,5.83
2023-02-25T19:13:24.792Z,4.40
2023-02-25T19:16:48.400Z,5.07
2023-02-25T19:20:13.912Z,3.23
2023-02-25T19:23:37.662Z,3.90
2023-02-25T19:27:02.632Z,2.30
2023-02-25T19:30:29.082Z,3.63
2023-02-25T19:33:52.683Z,3.23
2023-02-25T19:37:18.025Z,2.93
2023-02-25T19:40:41.587Z,5.40
2023-02-25T19:44:06.619Z,2.83
2023-02-25T19:47:30.479Z,3.40
2023-02-25T19:50:54.233Z,2.97
2023-02-25T19:54:19.252Z,2.90
2023-02-25T19:57:43.037Z,3.20
2023-02-25T20:01:09.713Z,3.50
2023-02-25T20:04:33.330Z,4.17
2023-02-25T20:07:56.911Z,3.10
2023-02-25T20:11:23.243Z,2.50
2023-02-25T20:14:46.813Z,2.70
2023-02-25T20:18:11.961Z,2.73
2023-02-25T20:21:36.336Z,2.90
2023-02-25T20:25:00.426Z,2.80
2023-02-25T20:28:24.307Z,3.87
2023-02-25T20:31:48.107Z,2.57
2023-02-25T20:35:17.911Z,3.27
2023-02-25T20:38:45.696Z,3.40
2023-02-25T20:42:13.387Z,2.87
2023-02-25T20:45:38.206Z,2.47
2023-02-25T20:49:03.234Z,2.70
2023-02-25T20:52:28.755Z,2.67
2023-02-25T20:55:56.842Z,2.20
2023-02-25T20:59:21.422Z,2.70
2023-02-25T21:02:45.386Z,2.60
2023-02-25T21:06:13.676Z,2.17
2023-02-25T21:09:38.583Z,2.67
2023-02-25T21:13:09.833Z,2.50
2023-02-25T21:16:33.936Z,2.30
2023-02-25T21:19:57.517Z,2.40
2023-02-25T21:23:21.416Z,2.23
2023-02-25T21:26:47.269Z,2.40
2023-02-25T21:30:12.019Z,2.67
2023-02-25T21:33:37.585Z,2.10
2023-02-25T21:37:01.324Z,2.13
2023-02-25T21:40:24.919Z,2.63
2023-02-25T21:43:50.170Z,2.60
2023-02-25T21:47:13.772Z,3.30
2023-02-25T21:50:37.300Z,2.57
2023-02-25T21:54:02.114Z,3.10
2023-02-25T21:57:25.689Z,2.60
2023-02-25T22:00:50.646Z,2.77
2023-02-25T22:04:14.274Z,4.30
2023-02-25T22:07:37.907Z,3.80
2023-02-25T22:11:01.517Z,4.70
2023-02-25T22:14:26.153Z,4.00
2023-02-25T22:17:51.012Z,3.67
2023-02-25T22:21:16.652Z,3.43
2023-02-25T22:24:40.290Z,3.60
2023-02-25T22:28:05.471Z,3.73
2023-02-25T22:31:29.758Z,3.00
2023-02-25T22:34:54.693Z,3.00
2023-02-25T22:38:18.284Z,3.77
2023-02-25T22:41:42.491Z,3.10
2023-02-25T22:45:07.147Z,5.07
2023-02-25T22:48:31.723Z,4.60
2023-02-25T22:51:56.731Z,4.00
2023-02-25T22:55:20.343Z,4.40
2023-02-25T22:58:43.962Z,3.63
2023-02-25T23:02:07.536Z,2.60
2023-02-25T23:05:31.096Z,4.77
2023-02-25T23:08:56.363Z,4.87
2023-02-25T23:12:21.367Z,3.67
2023-02-25T23:15:47.289Z,3.47
2023-02-25T23:19:14.043Z,2.83
2023-02-25T23:22:37.728Z,2.93
2023-02-25T23:26:02.976Z,3.70
2023-02-25T23:29:26.680Z,2.73
2023-02-25T23:32:53.926Z,2.40
2023-02-25T23:36:17.633Z,3.83
2023-02-25T23:39:46.088Z,2.87
2023-02-25T23:43:13.545Z,4.03
2023-02-25T23:46:38.188Z,3.57
2023-02-25T23:50:03.809Z,4.47
2023-02-25T23:53:29.919Z,4.67
2023-02-25T23:56:54.518Z,4.23
